Time;durP1;ratioP1;P1;durP2;ratioP2;P2;SDS_P1;SDS_P2;PMS_P1;PMS_P2;Temp;Humidity;BMP_temperature;BMP_pressure;BME280_temperature;BME280_humidity;BME280_pressure;Samples;Min_cycle;Max_cycle;Signal;HPM_P1;HPM_P2
2022/02/22 00:00:32;;;;;;;;;10.75;5.25;;;;;9.49;62.59;102073.84;6218429;22;45298;-82
2022/02/22 00:02:57;;;;;;;;;11.00;6.00;;;;;9.47;62.48;102072.03;6194722;22;45439;-82
2022/02/22 00:05:23;;;;;;;;;9.25;5.25;;;;;9.39;62.83;102063.09;6219557;22;45333;-85
2022/02/22 00:07:49;;;;;;;;;14.50;8.50;;;;;9.38;63.06;102064.84;6219138;22;45812;-85
2022/02/22 00:10:15;;;;;;;;;9.25;7.00;;;;;9.39;63.26;102077.13;6193545;22;45263;-86
2022/02/22 00:12:44;;;;;;;;;12.50;7.75;;;;;9.36;63.24;102077.06;6221722;22;45158;-87
2022/02/22 00:15:10;;;;;;;;;7.75;6.25;;;;;9.24;63.22;102053.13;6193784;22;45268;-85
2022/02/22 00:17:38;;;;;;;;;6.25;6.25;;;;;9.32;63.19;102075.19;6194029;22;48024;-85
2022/02/22 00:20:05;;;;;;;;;8.75;4.50;;;;;9.15;63.37;102043.28;6218951;22;45379;-87
2022/02/22 00:22:31;;;;;;;;;9.00;7.75;;;;;9.27;63.71;102079.47;6194050;22;45225;-87
2022/02/22 00:24:56;;;;;;;;;16.00;10.50;;;;;9.18;63.88;102072.25;6194500;22;45182;-87
2022/02/22 00:27:22;;;;;;;;;11.00;7.00;;;;;9.11;63.80;102058.94;6222698;22;45364;-86
2022/02/22 00:29:50;;;;;;;;;6.50;5.50;;;;;9.07;63.91;102060.63;6197544;22;45646;-87
2022/02/22 00:32:15;;;;;;;;;7.75;5.50;;;;;9.10;64.05;102065.94;6195549;22;45251;-85
2022/02/22 00:34:41;;;;;;;;;10.75;9.00;;;;;9.13;64.28;102075.63;6219141;22;45379;-86
2022/02/22 00:37:07;;;;;;;;;8.75;5.50;;;;;9.11;64.09;102075.59;6191977;22;47831;-87
2022/02/22 00:39:32;;;;;;;;;3.75;3.75;;;;;9.13;64.33;102079.13;6193106;22;45283;-87
2022/02/22 00:41:57;;;;;;;;;10.50;7.25;;;;;9.07;64.09;102062.34;6220520;22;45935;-87
2022/02/22 00:44:23;;;;;;;;;8.25;7.50;;;;;8.98;64.26;102047.25;6192321;22;45593;-86
2022/02/22 00:46:50;;;;;;;;;11.00;8.25;;;;;9.03;64.22;102067.53;6220477;22;45439;-86
2022/02/22 00:49:16;;;;;;;;;10.75;8.00;;;;;8.99;64.35;102064.81;6190818;22;45281;-85
2022/02/22 00:51:41;;;;;;;;;10.75;9.00;;;;;8.99;64.25;102067.44;6193690;22;45313;-86
2022/02/22 00:54:07;;;;;;;;;9.00;6.00;;;;;9.02;64.60;102072.75;6193319;22;45982;-85
2022/02/22 00:56:32;;;;;;;;;14.50;9.00;;;;;8.94;64.38;102074.31;6219722;22;45437;-87
2022/02/22 00:58:58;;;;;;;;;10.25;4.00;;;;;8.94;64.52;102066.44;6196597;22;45265;-87
2022/02/22 01:01:23;;;;;;;;;10.75;8.75;;;;;8.95;64.67;102084.81;6226700;22;45269;-88
2022/02/22 01:03:48;;;;;;;;;10.50;7.00;;;;;8.79;64.71;102062.59;6235194;22;45261;-88
2022/02/22 01:06:14;;;;;;;;;11.50;9.00;;;;;8.85;64.77;102090.72;6206484;22;47777;-86
2022/02/22 01:08:39;;;;;;;;;12.00;6.75;;;;;8.83;64.91;102092.41;6228652;22;45378;-85
2022/02/22 01:11:05;;;;;;;;;12.00;8.00;;;;;8.86;64.77;102096.88;6201980;22;45318;-85
2022/02/22 01:13:31;;;;;;;;;9.50;6.00;;;;;8.90;65.03;102098.69;6224222;22;45201;-85
2022/02/22 01:15:56;;;;;;;;;12.75;5.50;;;;;8.81;64.81;102095.00;6227677;22;46127;-85
2022/02/22 01:18:22;;;;;;;;;11.75;8.75;;;;;8.73;64.77;102083.41;6226540;22;45154;-84
2022/02/22 01:20:48;;;;;;;;;8.50;6.75;;;;;8.86;64.80;102115.25;6226721;22;45233;-84
2022/02/22 01:23:14;;;;;;;;;9.75;7.25;;;;;8.79;65.10;102115.09;6226865;22;45166;-85
2022/02/22 01:25:40;;;;;;;;;10.75;8.00;;;;;8.71;65.34;102099.97;6226882;22;45205;-84
2022/02/22 01:28:05;;;;;;;;;13.25;7.50;;;;;8.74;65.37;102102.66;6200385;22;45201;-83
2022/02/22 01:30:31;;;;;;;;;9.00;6.50;;;;;8.72;65.49;102110.53;6227777;22;45158;-84
2022/02/22 01:32:56;;;;;;;;;10.00;8.00;;;;;8.65;65.12;102098.06;6193634;22;45212;-83
2022/02/22 01:35:21;;;;;;;;;9.50;8.75;;;;;8.73;65.59;102116.66;6220508;22;46288;-85
2022/02/22 01:37:47;;;;;;;;;10.75;6.50;;;;;8.56;65.82;102093.50;6218424;22;45399;-85
2022/02/22 01:40:13;;;;;;;;;6.50;6.50;;;;;8.69;65.70;102122.69;6192236;22;45450;-84
2022/02/22 01:42:38;;;;;;;;;10.25;6.00;;;;;8.66;65.60;102113.00;6218717;22;45406;-84
2022/02/22 01:45:05;;;;;;;;;10.00;6.00;;;;;8.52;65.79;102101.22;6220576;22;46099;-84
2022/02/22 01:47:30;;;;;;;;;8.50;7.25;;;;;8.47;66.04;102098.47;6191477;22;45318;-84
2022/02/22 01:49:56;;;;;;;;;12.75;8.25;;;;;8.57;65.71;102121.50;6219395;22;45276;-84
2022/02/22 01:52:21;;;;;;;;;13.25;8.50;;;;;8.43;65.66;102101.88;6191251;22;45373;-84
2022/02/22 01:54:47;;;;;;;;;9.00;8.25;;;;;8.43;66.02;102104.50;6192273;22;46945;-85
2022/02/22 01:57:13;;;;;;;;;12.50;10.50;;;;;8.37;66.37;102084.22;6191044;22;45199;-84
2022/02/22 01:59:41;;;;;;;;;11.75;8.00;;;;;8.40;66.22;102099.19;6191854;22;45281;-84
2022/02/22 02:02:07;;;;;;;;;10.00;7.25;;;;;8.44;66.53;102108.91;6217712;22;45454;-84
2022/02/22 02:04:32;;;;;;;;;7.25;5.75;;;;;8.26;66.33;102079.50;6192132;22;46006;-83
2022/02/22 02:06:59;;;;;;;;;8.00;6.50;;;;;8.31;66.83;102105.03;6191070;22;45378;-84
2022/02/22 02:09:25;;;;;;;;;17.75;8.75;;;;;8.29;66.59;102098.84;6220156;22;45392;-84
2022/02/22 02:11:57;;;;;;;;;9.50;7.25;;;;;8.26;66.88;102088.28;6190945;22;44765;-84
2022/02/22 02:14:24;;;;;;;;;12.25;8.00;;;;;8.31;66.79;102114.63;6218338;22;46231;-84
2022/02/22 02:16:51;;;;;;;;;9.50;6.00;;;;;8.20;66.73;102095.06;6190738;22;45368;-84
2022/02/22 02:19:18;;;;;;;;;7.50;7.50;;;;;8.23;66.67;102105.66;6218554;22;45482;-84
2022/02/22 02:21:45;;;;;;;;;11.25;8.75;;;;;8.17;67.21;102109.88;6218106;22;45182;-84
2022/02/22 02:24:21;;;;;;;;;8.25;7.00;;;;;8.24;66.99;102134.56;6191137;22;46336;-85
2022/02/22 02:26:48;;;;;;;;;13.25;8.50;;;;;8.07;67.17;102105.25;6218760;22;45157;-85
2022/02/22 02:29:16;;;;;;;;;12.25;9.50;;;;;8.24;67.31;102128.44;6193005;22;45313;-84
2022/02/22 02:31:43;;;;;;;;;7.75;7.00;;;;;8.05;67.36;102091.19;6191323;22;45350;-85
2022/02/22 02:34:12;;;;;;;;;14.25;10.75;;;;;8.15;67.26;102106.34;6191526;22;48047;-85
2022/02/22 02:36:38;;;;;;;;;11.00;8.25;;;;;8.11;67.18;102117.56;6191381;22;45391;-84
2022/02/22 02:39:05;;;;;;;;;15.25;8.25;;;;;8.04;67.31;102112.13;6191610;22;45367;-84
2022/02/22 02:41:31;;;;;;;;;8.00;3.75;;;;;8.00;67.43;102103.28;6218137;22;45459;-85
2022/02/22 02:44:11;;;;;;;;;8.25;4.75;;;;;7.98;67.39;102107.59;6219495;22;47758;-85
2022/02/22 02:46:38;;;;;;;;;10.25;9.00;;;;;8.08;67.76;102135.84;6220596;22;45382;-85
2022/02/22 02:49:05;;;;;;;;;8.75;7.75;;;;;8.06;67.25;102127.06;6219195;22;45356;-84
2022/02/22 02:51:31;;;;;;;;;12.25;8.25;;;;;7.95;67.13;102126.75;6191560;22;45295;-84
2022/02/22 02:53:57;;;;;;;;;12.50;8.75;;;;;7.98;67.56;102141.66;6220642;22;45275;-84
2022/02/22 02:56:25;;;;;;;;;10.25;5.00;;;;;7.99;67.51;102153.03;6194559;22;45161;-85
2022/02/22 02:58:52;;;;;;;;;12.50;7.50;;;;;7.88;67.63;102140.50;6222744;22;45241;-85
2022/02/22 03:01:19;;;;;;;;;9.75;8.25;;;;;7.81;67.48;102141.19;6195213;22;45328;-84
2022/02/22 03:03:44;;;;;;;;;10.00;8.00;;;;;7.95;67.40;102158.19;6194693;22;47624;-84
2022/02/22 03:06:10;;;;;;;;;11.25;8.00;;;;;7.75;68.04;102120.00;6222615;22;45257;-84
2022/02/22 03:08:35;;;;;;;;;15.00;9.25;;;;;7.87;67.91;102141.34;6222145;22;44701;-84
2022/02/22 03:11:01;;;;;;;;;7.75;7.25;;;;;7.90;67.74;102137.94;6195318;22;45275;-84
2022/02/22 03:13:26;;;;;;;;;15.00;10.25;;;;;7.75;67.58;102125.25;6195765;22;47105;-84
2022/02/22 03:15:52;;;;;;;;;9.50;7.50;;;;;7.88;67.85;102152.72;6223755;22;45386;-83
2022/02/22 03:18:17;;;;;;;;;7.75;7.25;;;;;7.87;67.84;102158.81;6222919;22;45283;-84
2022/02/22 03:20:43;;;;;;;;;13.25;9.50;;;;;7.76;68.00;102131.41;6196248;22;45267;-84
2022/02/22 03:23:08;;;;;;;;;10.00;8.25;;;;;7.83;68.11;102146.44;6194238;22;46128;-84
2022/02/22 03:25:34;;;;;;;;;16.75;11.75;;;;;7.87;67.99;102157.09;6222814;22;45183;-85
2022/02/22 03:28:00;;;;;;;;;12.50;8.00;;;;;7.83;68.42;102152.63;6195880;22;45131;-85
2022/02/22 03:30:28;;;;;;;;;12.50;8.50;;;;;7.82;68.38;102153.44;6196535;22;45575;-84
2022/02/22 03:32:54;;;;;;;;;8.50;6.50;;;;;7.71;68.27;102140.00;6223245;22;46158;-84
2022/02/22 03:35:19;;;;;;;;;14.50;9.50;;;;;7.77;68.10;102148.91;6196100;22;45302;-85
2022/02/22 03:37:45;;;;;;;;;12.00;9.25;;;;;7.74;68.50;102153.19;6196402;22;45209;-84
2022/02/22 03:40:10;;;;;;;;;12.50;6.50;;;;;7.69;68.26;102139.06;6197037;22;45277;-84
2022/02/22 03:42:40;;;;;;;;;14.00;9.00;;;;;7.71;68.39;102131.25;6195911;22;47084;-85
2022/02/22 03:45:06;;;;;;;;;11.00;8.00;;;;;7.72;68.64;102144.41;6225068;22;45193;-84
2022/02/22 03:47:31;;;;;;;;;12.25;9.00;;;;;7.70;68.87;102143.47;6221048;22;45211;-84
2022/02/22 03:49:56;;;;;;;;;6.75;3.00;;;;;7.57;68.66;102116.84;6223746;22;45394;-85
2022/02/22 03:52:23;;;;;;;;;15.50;7.75;;;;;7.66;68.89;102131.09;6222935;22;46379;-82
2022/02/22 03:54:49;;;;;;;;;13.25;7.25;;;;;7.67;68.77;102134.59;6195632;22;45380;-84
2022/02/22 03:57:14;;;;;;;;;12.25;8.75;;;;;7.68;68.69;102137.28;6194608;22;45391;-83
2022/02/22 03:59:40;;;;;;;;;10.00;8.00;;;;;7.61;68.64;102118.72;6194614;22;45461;-83
2022/02/22 04:02:05;;;;;;;;;11.75;8.25;;;;;7.57;68.82;102120.34;6221202;22;45367;-84
2022/02/22 04:04:30;;;;;;;;;12.75;8.50;;;;;7.67;68.97;102124.13;6221523;22;45186;-84
2022/02/22 04:06:56;;;;;;;;;12.00;10.50;;;;;7.66;68.98;102127.59;6193741;22;45193;-84
2022/02/22 04:09:21;;;;;;;;;10.75;8.50;;;;;7.62;68.77;102115.25;6195339;22;45454;-84
2022/02/22 04:11:47;;;;;;;;;15.50;8.75;;;;;7.71;68.64;102134.75;6221302;22;45368;-84
2022/02/22 04:14:13;;;;;;;;;14.75;8.00;;;;;7.64;68.65;102126.66;6195627;22;45095;-84
2022/02/22 04:16:38;;;;;;;;;13.50;7.25;;;;;7.64;68.54;102132.78;6193810;22;45213;-84
2022/02/22 04:19:04;;;;;;;;;13.25;7.75;;;;;7.73;68.83;102151.44;6193090;22;45474;-84
2022/02/22 04:21:29;;;;;;;;;8.75;7.50;;;;;7.69;68.89;102136.44;6219833;22;45361;-84
2022/02/22 04:23:55;;;;;;;;;16.50;8.50;;;;;7.80;68.64;102162.97;6192935;22;45577;-84
2022/02/22 04:26:20;;;;;;;;;14.50;9.75;;;;;7.76;68.51;102158.50;6192950;22;45296;-84
2022/02/22 04:28:46;;;;;;;;;13.25;8.25;;;;;7.73;68.67;102148.81;6220579;22;45179;-84
2022/02/22 04:31:11;;;;;;;;;15.25;11.00;;;;;7.88;68.68;102163.22;6192199;22;47027;-84
2022/02/22 04:33:36;;;;;;;;;8.25;6.25;;;;;7.84;68.37;102150.88;6192699;22;45177;-84
2022/02/22 04:36:02;;;;;;;;;13.75;9.25;;;;;7.85;68.21;102160.50;6192293;22;45363;-84
2022/02/22 04:38:28;;;;;;;;;13.75;8.00;;;;;7.86;68.53;102162.31;6219921;22;45309;-83
2022/02/22 04:40:53;;;;;;;;;10.00;8.50;;;;;7.85;68.23;102155.25;6193492;22;47029;-83
2022/02/22 04:43:19;;;;;;;;;14.25;8.25;;;;;7.88;67.93;102165.84;6194860;22;45375;-83
2022/02/22 04:45:44;;;;;;;;;8.00;5.25;;;;;7.94;68.24;102168.66;6222417;22;45155;-83
2022/02/22 04:48:09;;;;;;;;;15.50;7.50;;;;;7.84;67.87;102151.75;6221469;22;45201;-83
2022/02/22 04:50:35;;;;;;;;;12.00;9.25;;;;;7.86;68.15;102157.94;6223025;22;45597;-84
2022/02/22 04:53:00;;;;;;;;;17.00;11.25;;;;;7.85;68.07;102152.63;6222489;22;45297;-84
2022/02/22 04:55:27;;;;;;;;;12.00;8.00;;;;;7.78;68.01;102148.97;6222905;22;45306;-83
2022/02/22 04:57:52;;;;;;;;;14.25;8.75;;;;;7.82;68.00;102165.66;6222525;22;45150;-84
2022/02/22 05:00:18;;;;;;;;;14.00;10.50;;;;;7.86;67.95;102181.53;6196053;22;46903;-83
2022/02/22 05:02:44;;;;;;;;;10.75;8.00;;;;;7.76;67.90;102168.09;6195598;22;45177;-83
2022/02/22 05:05:10;;;;;;;;;16.00;7.75;;;;;7.69;67.97;102151.28;6223707;22;45133;-84
2022/02/22 05:07:35;;;;;;;;;12.75;10.00;;;;;7.78;68.06;102175.16;6223139;22;45426;-84
2022/02/22 05:10:01;;;;;;;;;10.25;7.25;;;;;7.82;67.97;102178.78;6224047;22;45340;-83
2022/02/22 05:12:27;;;;;;;;;11.50;8.25;;;;;7.84;68.00;102172.72;6223264;22;45150;-84
2022/02/22 05:14:52;;;;;;;;;9.75;8.25;;;;;7.84;68.05;102167.47;6196831;22;45284;-84
2022/02/22 05:17:17;;;;;;;;;9.50;7.25;;;;;7.77;68.04;102162.88;6195921;22;45426;-84
2022/02/22 05:19:43;;;;;;;;;12.75;8.50;;;;;7.87;67.83;102172.81;6223515;22;45355;-84
2022/02/22 05:22:08;;;;;;;;;12.25;9.00;;;;;7.80;67.83;102159.47;6195567;22;45276;-83
2022/02/22 05:24:34;;;;;;;;;11.75;8.25;;;;;7.80;68.29;102157.72;6222165;22;45292;-84
2022/02/22 05:27:00;;;;;;;;;15.00;9.75;;;;;7.86;67.81;102162.31;6224560;22;45349;-83
2022/02/22 05:29:25;;;;;;;;;13.50;7.00;;;;;7.81;67.59;102154.28;6195976;22;47393;-84
2022/02/22 05:31:51;;;;;;;;;7.25;6.00;;;;;7.83;67.86;102154.31;6220883;22;45480;-84
2022/02/22 05:34:16;;;;;;;;;8.75;6.50;;;;;7.94;67.86;102163.41;6197113;22;45262;-83
2022/02/22 05:36:42;;;;;;;;;9.00;8.25;;;;;7.95;67.81;102158.19;6196805;22;45356;-83
2022/02/22 05:39:07;;;;;;;;;11.25;8.25;;;;;7.97;67.86;102170.50;6224939;22;45957;-83
2022/02/22 05:41:33;;;;;;;;;9.75;8.00;;;;;7.90;68.07;102157.16;6196426;22;45192;-84
2022/02/22 05:43:58;;;;;;;;;11.25;8.50;;;;;7.95;67.81;102165.19;6197218;22;45099;-84
2022/02/22 05:46:24;;;;;;;;;14.50;9.75;;;;;8.01;67.76;102178.47;6196344;22;45360;-84
2022/02/22 05:48:49;;;;;;;;;8.75;7.75;;;;;7.95;67.66;102171.31;6224116;22;45451;-84
2022/02/22 05:51:16;;;;;;;;;9.00;9.00;;;;;8.04;67.87;102178.56;6224308;22;45189;-85
2022/02/22 05:53:41;;;;;;;;;9.50;7.50;;;;;7.96;67.92;102153.84;6223166;22;45226;-83
2022/02/22 05:56:10;;;;;;;;;9.00;6.25;;;;;8.06;67.93;102165.50;6223712;22;45176;-84
2022/02/22 05:58:36;;;;;;;;;8.00;6.75;;;;;7.98;67.81;102151.28;6194952;22;45918;-84
2022/02/22 06:01:01;;;;;;;;;11.50;7.00;;;;;7.97;67.71;102139.91;6222080;22;45373;-84
2022/02/22 06:03:27;;;;;;;;;11.50;9.25;;;;;8.08;68.00;102154.22;6192576;22;45458;-85
2022/02/22 06:05:53;;;;;;;;;13.75;11.25;;;;;8.08;68.02;102140.22;6190243;22;45396;-83
2022/02/22 06:08:18;;;;;;;;;12.75;10.00;;;;;7.95;67.65;102121.50;6191099;22;46289;-85
2022/02/22 06:10:44;;;;;;;;;10.00;7.75;;;;;8.03;67.62;102133.94;6217550;22;45259;-84
2022/02/22 06:13:09;;;;;;;;;9.25;5.75;;;;;8.02;67.66;102133.06;6190771;22;45178;-84
2022/02/22 06:15:35;;;;;;;;;9.50;8.25;;;;;8.09;67.74;102139.38;6218591;22;45365;-84
2022/02/22 06:18:00;;;;;;;;;20.00;14.50;;;;;8.06;67.68;102134.03;6189715;22;46619;-85
2022/02/22 06:20:27;;;;;;;;;14.50;10.50;;;;;8.06;67.52;102132.28;6190518;22;45216;-85
2022/02/22 06:22:53;;;;;;;;;15.75;9.00;;;;;8.10;67.63;102128.94;6216641;22;45311;-84
2022/02/22 06:25:18;;;;;;;;;14.00;9.25;;;;;8.12;67.95;102126.34;6218894;22;45372;-85
2022/02/22 06:27:54;;;;;;;;;11.50;9.00;;;;;8.11;67.32;102132.44;6189405;22;46903;-85
2022/02/22 06:30:21;;;;;;;;;11.00;7.75;;;;;8.12;67.75;102132.47;6190292;22;45376;-85
2022/02/22 06:32:49;;;;;;;;;8.00;7.00;;;;;8.21;67.55;102155.47;6190390;22;45406;-85
2022/02/22 06:35:15;;;;;;;;;8.75;5.00;;;;;8.14;67.57;102141.28;6189713;22;45528;-84
2022/02/22 06:37:40;;;;;;;;;16.00;9.50;;;;;8.16;67.63;102139.59;6190882;22;47138;-84
2022/02/22 06:40:07;;;;;;;;;16.25;10.25;;;;;8.24;67.68;102152.94;6189757;22;45190;-84
2022/02/22 06:42:34;;;;;;;;;13.25;9.00;;;;;8.11;67.85;102121.94;6219269;22;45193;-85
2022/02/22 06:45:00;;;;;;;;;16.75;11.25;;;;;8.18;67.78;102134.41;6189416;22;45374;-85
2022/02/22 06:47:25;;;;;;;;;8.00;8.00;;;;;8.22;67.82;102133.63;6191213;22;47021;-85
2022/02/22 06:49:50;;;;;;;;;10.25;6.00;;;;;8.34;67.80;102161.94;6191106;22;45435;-85
2022/02/22 06:52:16;;;;;;;;;9.75;8.00;;;;;8.24;67.81;102149.41;6191041;22;45919;-84
2022/02/22 06:54:43;;;;;;;;;9.75;8.50;;;;;8.33;67.65;102149.66;6221942;22;45245;-84
2022/02/22 06:57:09;;;;;;;;;9.50;7.50;;;;;8.39;67.77;102158.66;6190823;22;45981;-85
2022/02/22 06:59:34;;;;;;;;;12.00;8.25;;;;;8.38;67.92;102169.06;6191339;22;45265;-85
2022/02/22 07:02:00;;;;;;;;;8.25;7.25;;;;;8.37;67.86;102159.41;6192179;22;45183;-85
2022/02/22 07:04:25;;;;;;;;;15.25;10.75;;;;;8.43;67.94;102158.72;6190972;22;45425;-84
2022/02/22 07:06:51;;;;;;;;;11.00;9.50;;;;;8.29;68.18;102139.94;6218476;22;45108;-86
2022/02/22 07:09:16;;;;;;;;;9.50;7.75;;;;;8.32;67.99;102134.78;6219506;22;45170;-85
2022/02/22 07:11:42;;;;;;;;;8.50;6.50;;;;;8.37;67.72;102144.56;6218124;22;45239;-85
2022/02/22 07:14:07;;;;;;;;;7.25;5.75;;;;;8.42;67.88;102147.34;6192779;22;45598;-85
2022/02/22 07:16:33;;;;;;;;;10.75;9.25;;;;;8.46;67.75;102151.81;6190464;22;46182;-85
2022/02/22 07:18:58;;;;;;;;;9.75;7.25;;;;;8.48;67.87;102150.13;6217952;22;45281;-85
2022/02/22 07:21:24;;;;;;;;;13.50;8.00;;;;;8.49;68.21;102151.91;6219762;22;45155;-85
2022/02/22 07:23:50;;;;;;;;;7.50;3.75;;;;;8.45;68.15;102143.94;6217773;22;45351;-85
2022/02/22 07:26:16;;;;;;;;;9.25;7.00;;;;;8.46;68.08;102141.31;6191197;22;46981;-85
2022/02/22 07:28:42;;;;;;;;;14.25;8.25;;;;;8.57;67.86;102153.00;6218077;22;45355;-86
2022/02/22 07:31:11;;;;;;;;;10.75;7.75;;;;;8.55;67.89;102153.81;6190900;22;45215;-86
2022/02/22 07:33:38;;;;;;;;;10.00;8.00;;;;;8.55;68.02;102157.34;6190100;22;45564;-86
2022/02/22 07:36:05;;;;;;;;;8.00;4.75;;;;;8.47;67.85;102153.59;6217662;22;45334;-86
2022/02/22 07:38:31;;;;;;;;;11.00;9.00;;;;;8.46;67.80;102136.06;6192591;22;45437;-85
2022/02/22 07:41:06;;;;;;;;;9.25;8.50;;;;;8.64;67.87;102167.19;6217803;22;45396;-86
2022/02/22 07:43:32;;;;;;;;;10.25;6.00;;;;;8.53;67.73;102145.91;6217925;22;45255;-86
2022/02/22 07:46:17;;;;;;;;;;;;;;;;;;;;;
2022/02/22 07:48:44;;;;;;;;;10.50;8.75;;;;;8.66;67.77;102157.63;6216005;22;72997;-85
2022/02/22 07:51:18;;;;;;;;;11.75;6.00;;;;;8.59;67.63;102134.69;6218635;22;45296;-84
2022/02/22 07:53:54;;;;;;;;;;;;;;;;;;;;;
2022/02/22 07:56:20;;;;;;;;;10.50;8.00;;;;;8.60;67.57;102137.31;6215633;22;75594;-85
2022/02/22 07:58:46;;;;;;;;;10.50;8.00;;;;;8.69;67.82;102152.47;6191651;22;45206;-85
2022/02/22 08:01:12;;;;;;;;;15.00;9.50;;;;;8.67;68.03;102133.16;6217841;22;45177;-84
2022/02/22 08:03:38;;;;;;;;;10.00;7.75;;;;;8.73;68.14;102143.81;6191088;22;45328;-84
2022/02/22 08:06:04;;;;;;;;;10.50;9.00;;;;;8.64;67.83;102125.19;6216974;22;47302;-84
2022/02/22 08:08:32;;;;;;;;;9.50;5.00;;;;;8.82;67.99;102161.53;6217619;22;45223;-86
2022/02/22 08:10:57;;;;;;;;;9.75;5.50;;;;;8.72;67.88;102131.53;6191358;22;45202;-84
2022/02/22 08:13:23;;;;;;;;;11.25;7.00;;;;;8.89;68.16;102145.09;6191251;22;45585;-84
2022/02/22 08:15:48;;;;;;;;;11.25;10.00;;;;;8.77;67.81;102116.78;6217546;22;45166;-85
2022/02/22 08:18:14;;;;;;;;;12.50;9.25;;;;;8.88;68.00;102124.94;6191143;22;45139;-84
2022/02/22 08:20:42;;;;;;;;;10.50;8.00;;;;;8.89;67.96;102126.72;6190423;22;45185;-84
2022/02/22 08:23:08;;;;;;;;;8.50;8.50;;;;;8.97;68.13;102134.78;6189791;22;45880;-86
2022/02/22 08:25:34;;;;;;;;;13.75;9.00;;;;;9.04;67.81;102139.34;6217696;22;46223;-85
2022/02/22 08:27:59;;;;;;;;;12.50;9.00;;;;;8.94;67.89;102127.72;6189747;22;45629;-85
2022/02/22 08:30:30;;;;;;;;;12.25;9.25;;;;;8.97;67.88;102134.78;6220987;22;45221;-87
2022/02/22 08:32:56;;;;;;;;;11.50;10.25;;;;;8.97;67.98;102129.53;6190414;22;45277;-85
2022/02/22 08:35:21;;;;;;;;;14.50;9.75;;;;;9.02;67.87;102139.31;6217349;22;46237;-87
2022/02/22 08:37:50;;;;;;;;;8.50;6.75;;;;;9.15;68.01;102150.13;6222132;22;45210;-88
2022/02/22 08:40:16;;;;;;;;;10.00;5.25;;;;;9.09;67.87;102121.06;6190596;22;45332;-84
2022/02/22 08:42:41;;;;;;;;;11.00;7.25;;;;;9.15;67.78;102114.22;6218446;22;45237;-86
2022/02/22 08:45:07;;;;;;;;;9.75;8.25;;;;;9.14;67.97;102109.84;6191677;22;45827;-86
2022/02/22 08:47:32;;;;;;;;;7.25;6.00;;;;;9.24;67.78;102113.56;6189109;22;45269;-84
2022/02/22 08:50:00;;;;;;;;;7.75;6.00;;;;;9.31;67.62;102123.38;6191326;22;45427;-85
2022/02/22 08:52:29;;;;;;;;;8.50;8.00;;;;;9.28;67.72;102105.78;6189105;22;46047;-86
2022/02/22 08:54:55;;;;;;;;;16.50;10.25;;;;;9.46;67.81;102133.34;6189838;22;47607;-85
2022/02/22 08:57:21;;;;;;;;;13.00;11.25;;;;;9.40;67.70;102123.56;6192112;22;45262;-86
2022/02/22 08:59:47;;;;;;;;;11.00;6.00;;;;;9.48;68.09;102129.88;6216902;22;45304;-87
2022/02/22 09:02:13;;;;;;;;;9.50;7.25;;;;;9.53;67.95;102135.25;6190961;22;45371;-86
2022/02/22 09:04:42;;;;;;;;;11.25;10.25;;;;;9.45;68.18;102115.81;6215000;22;48148;-87
2022/02/22 09:07:08;;;;;;;;;10.75;8.25;;;;;9.54;68.26;102125.63;6216918;22;45488;-87
2022/02/22 09:09:33;;;;;;;;;10.75;8.50;;;;;9.46;68.83;102101.78;6191320;22;45316;-86
2022/02/22 09:12:00;;;;;;;;;9.00;6.25;;;;;9.54;68.59;102107.22;6189218;22;45425;-86
2022/02/22 09:14:26;;;;;;;;;10.25;9.00;;;;;9.54;68.57;102105.47;6217675;22;45313;-86
2022/02/22 09:16:51;;;;;;;;;12.75;8.00;;;;;9.56;68.94;102097.63;6216324;22;45206;-86
2022/02/22 09:19:20;;;;;;;;;6.50;5.25;;;;;9.57;69.00;102096.78;6189702;22;45312;-87
2022/02/22 09:21:45;;;;;;;;;10.00;4.25;;;;;9.58;68.90;102096.81;6219284;22;45148;-86
2022/02/22 09:24:14;;;;;;;;;10.25;8.00;;;;;9.67;68.98;102122.41;6215601;22;45266;-84
2022/02/22 09:26:39;;;;;;;;;5.50;4.50;;;;;9.68;68.90;102104.06;6219883;22;45284;-85
2022/02/22 09:29:05;;;;;;;;;13.00;9.00;;;;;9.78;69.11;102120.91;6189212;22;45479;-84
2022/02/22 09:31:30;;;;;;;;;9.50;8.25;;;;;9.79;68.99;102112.19;6190756;22;45492;-83
2022/02/22 09:33:56;;;;;;;;;7.00;6.75;;;;;9.78;69.01;102097.25;6190676;22;47948;-85
2022/02/22 09:36:21;;;;;;;;;8.00;5.25;;;;;9.87;68.80;102100.09;6190402;22;45292;-87
2022/02/22 09:38:47;;;;;;;;;8.50;6.50;;;;;9.93;69.03;102104.59;6194138;22;45288;-86
2022/02/22 09:41:12;;;;;;;;;6.50;5.75;;;;;10.05;68.92;102106.56;6189579;22;45586;-84
2022/02/22 09:43:38;;;;;;;;;11.50;5.25;;;;;10.10;68.75;102100.56;6221713;22;45765;-86
2022/02/22 09:46:09;;;;;;;;;9.50;7.50;;;;;10.19;68.82;102081.44;6190918;22;45280;-84
2022/02/22 09:48:35;;;;;;;;;7.75;6.00;;;;;10.34;68.61;102088.75;6191114;22;45206;-87
2022/02/22 09:51:01;;;;;;;;;8.75;3.00;;;;;10.43;68.36;102086.31;6219866;22;45451;-86
2022/02/22 09:53:26;;;;;;;;;9.00;6.75;;;;;10.48;68.45;102047.78;6190063;22;46108;-85
2022/02/22 09:55:52;;;;;;;;;10.25;5.00;;;;;10.61;68.04;102051.50;6190684;22;45512;-85
2022/02/22 09:58:17;;;;;;;;;4.50;3.25;;;;;10.84;67.83;102056.28;6217706;22;45320;-86
2022/02/22 10:00:43;;;;;;;;;8.75;7.00;;;;;10.94;67.60;102060.84;6218051;22;45272;-83
2022/02/22 10:03:25;;;;;;;;;4.50;4.25;;;;;11.02;67.34;102046.03;6190950;22;47411;-86
2022/02/22 10:05:59;;;;;;;;;7.00;6.00;;;;;11.03;67.23;102022.31;6197044;22;45237;-93
2022/02/22 10:08:32;;;;;;;;;5.75;3.25;;;;;11.13;66.80;102041.81;6201899;22;44875;-91
2022/02/22 10:11:09;;;;;;;;;4.50;4.25;;;;;11.21;67.05;102050.72;6198842;22;45453;-92
2022/02/22 10:13:35;;;;;;;;;8.75;7.50;;;;;11.29;66.88;102036.78;6197777;22;46822;-92
2022/02/22 10:16:11;;;;;;;;;5.50;4.00;;;;;11.38;66.79;102050.94;6196215;22;45414;-94
2022/02/22 10:18:52;;;;;;;;;5.25;4.00;;;;;11.34;66.73;102050.91;6196202;22;45372;-94
2022/02/22 10:21:20;;;;;;;;;9.50;5.75;;;;;11.35;66.37;102050.91;6209142;22;44885;-94
2022/02/22 10:23:46;;;;;;;;;7.00;4.00;;;;;11.37;66.77;102040.41;6208136;22;46964;-94
2022/02/22 10:26:26;;;;;;;;;4.25;4.00;;;;;11.47;66.77;102056.38;6206834;22;44687;-93
2022/02/22 10:28:53;;;;;;;;;8.00;4.50;;;;;11.48;66.39;102055.50;6209513;22;44657;-92
2022/02/22 10:31:38;;;;;;;;;7.25;2.25;;;;;11.54;66.44;102061.72;6210061;22;45296;-90
2022/02/22 10:34:04;;;;;;;;;6.75;4.00;;;;;11.51;66.65;102067.84;6209841;22;46878;-90
2022/02/22 10:36:34;;;;;;;;;6.25;4.00;;;;;11.56;66.31;102074.06;6211841;22;45784;-94
2022/02/22 10:39:05;;;;;;;;;5.50;4.50;;;;;11.55;66.50;102074.94;6211290;22;44790;-94
2022/02/22 10:41:40;;;;;;;;;6.50;4.50;;;;;11.56;66.29;102089.00;6208941;22;44875;-87
2022/02/22 10:44:09;;;;;;;;;5.00;3.00;;;;;11.41;66.54;102072.13;6205986;22;46986;-85
2022/02/22 10:46:45;;;;;;;;;6.50;3.25;;;;;11.42;66.55;102080.91;6207917;22;45253;-87
2022/02/22 10:49:16;;;;;;;;;6.00;5.75;;;;;11.39;66.76;102081.75;6234895;22;44675;-88
2022/02/22 10:51:49;;;;;;;;;6.50;3.75;;;;;11.37;66.89;102077.31;6210224;22;45617;-85
2022/02/22 10:54:23;;;;;;;;;4.25;3.50;;;;;11.34;66.88;102072.88;6233781;22;45524;-87
2022/02/22 10:56:49;;;;;;;;;3.00;2.25;;;;;11.24;66.99;102058.66;6217682;22;45422;-84
2022/02/22 10:59:17;;;;;;;;;3.25;3.00;;;;;11.27;67.00;102063.09;6188697;22;44816;-84
2022/02/22 11:01:43;;;;;;;;;6.00;4.00;;;;;11.31;67.16;102087.78;6193406;22;45477;-86
2022/02/22 11:04:10;;;;;;;;;4.25;3.25;;;;;11.30;67.36;102083.34;6216943;22;45343;-86
2022/02/22 11:06:36;;;;;;;;;6.00;4.00;;;;;11.30;67.60;102073.69;6197174;22;45292;-92
2022/02/22 11:09:02;;;;;;;;;10.50;6.00;;;;;11.35;67.47;102064.09;6219415;22;45328;-88
2022/02/22 11:11:41;;;;;;;;;3.25;3.00;;;;;11.39;67.34;102060.66;6190164;22;45260;-87
2022/02/22 11:14:42;;;;;;;;;3.25;2.00;;;;;11.42;67.27;102054.53;6190641;22;45437;-88
2022/02/22 11:17:27;;;;;;;;;2.00;2.00;;;;;11.43;67.35;102038.72;6139290;22;45236;-87
2022/02/22 11:19:54;;;;;;;;;3.00;2.00;;;;;11.50;67.26;102044.97;6188664;22;45394;-90
2022/02/22 11:22:23;;;;;;;;;2.75;2.75;;;;;11.62;66.99;102054.78;6189699;22;45345;-86
2022/02/22 11:25:00;;;;;;;;;2.25;2.25;;;;;11.64;67.19;102069.78;6190944;22;46387;-83
2022/02/22 11:27:32;;;;;;;;;1.00;1.00;;;;;11.62;67.23;102081.16;6188238;22;45194;-84